Time;durP1;ratioP1;P1;durP2;ratioP2;P2;SDS_P1;SDS_P2;PMS_P1;PMS_P2;Temp;Humidity;BMP_temperature;BMP_pressure;BME280_temperature;BME280_humidity;BME280_pressure;Samples;Min_cycle;Max_cycle;Signal;HPM_P1;HPM_P2
2024/01/21 00:02:08;;;;;;;15.45;4.60;;;;;;;;;;6270749;22;20015;-42
2024/01/21 00:04:36;;;;;;;11.98;4.03;;;;;;;;;;6269100;22;20080;-41
2024/01/21 00:07:04;;;;;;;16.42;4.47;;;;;;;;;;6278921;22;20026;-42
2024/01/21 00:09:32;;;;;;;17.13;4.67;;;;;;;;;;6265424;22;20029;-41
2024/01/21 00:11:59;;;;;;;15.20;5.03;;;;;;;;;;6273611;22;20039;-42
2024/01/21 00:14:27;;;;;;;19.05;5.25;;;;;;;;;;6254773;22;20528;-42
2024/01/21 00:16:55;;;;;;;22.67;5.85;;;;;;;;;;6273191;22;20075;-41
2024/01/21 00:19:25;;;;;;;20.60;5.30;;;;;;;;;;6269532;22;20450;-41
2024/01/21 00:21:53;;;;;;;13.77;4.30;;;;;;;;;;6278908;22;20090;-41
2024/01/21 00:24:20;;;;;;;14.63;5.25;;;;;;;;;;6267721;22;20050;-42
2024/01/21 00:26:48;;;;;;;15.10;4.72;;;;;;;;;;6258677;22;20484;-41
2024/01/21 00:29:16;;;;;;;18.05;4.97;;;;;;;;;;6240253;22;20030;-42
2024/01/21 00:31:44;;;;;;;20.20;4.90;;;;;;;;;;6273500;22;20718;-41
2024/01/21 00:34:12;;;;;;;14.70;4.13;;;;;;;;;;6266277;22;20051;-41
2024/01/21 00:36:43;;;;;;;21.83;5.18;;;;;;;;;;6272721;22;20095;-42
2024/01/21 00:39:11;;;;;;;19.60;4.68;;;;;;;;;;6269005;22;20139;-41
2024/01/21 00:41:39;;;;;;;18.30;5.05;;;;;;;;;;6281264;22;20046;-41
2024/01/21 00:44:18;;;;;;;16.15;5.07;;;;;;;;;;6270964;22;20034;-43
2024/01/21 00:46:47;;;;;;;18.07;4.63;;;;;;;;;;6265117;22;20500;-42
2024/01/21 00:49:14;;;;;;;16.88;3.90;;;;;;;;;;6276512;22;20361;-42
2024/01/21 00:51:44;;;;;;;18.17;5.45;;;;;;;;;;6267773;22;20381;-42
2024/01/21 00:54:12;;;;;;;16.30;4.38;;;;;;;;;;6273895;22;20023;-42
2024/01/21 00:56:40;;;;;;;17.20;3.85;;;;;;;;;;6271770;22;20018;-41
2024/01/21 00:59:07;;;;;;;11.43;3.33;;;;;;;;;;6273559;22;20022;-45
2024/01/21 01:01:37;;;;;;;15.30;4.30;;;;;;;;;;6258688;22;20015;-43
2024/01/21 01:04:06;;;;;;;12.13;3.70;;;;;;;;;;6272098;22;20119;-42
2024/01/21 01:06:35;;;;;;;16.45;4.50;;;;;;;;;;6228187;22;20382;-42
2024/01/21 01:09:05;;;;;;;13.93;3.88;;;;;;;;;;6272078;22;20015;-43
2024/01/21 01:11:33;;;;;;;14.77;4.03;;;;;;;;;;6269799;22;20011;-42
2024/01/21 01:14:01;;;;;;;13.98;4.40;;;;;;;;;;6274742;22;20027;-41
2024/01/21 01:16:38;;;;;;;15.73;3.97;;;;;;;;;;6274996;22;20381;-42
2024/01/21 01:19:06;;;;;;;14.13;4.10;;;;;;;;;;6269282;22;20015;-42
2024/01/21 01:21:34;;;;;;;15.57;4.03;;;;;;;;;;6278539;22;20011;-42
2024/01/21 01:24:02;;;;;;;19.60;4.57;;;;;;;;;;6263593;22;20025;-42
2024/01/21 01:26:31;;;;;;;16.83;4.95;;;;;;;;;;6276241;22;20401;-46
2024/01/21 01:28:59;;;;;;;21.23;4.68;;;;;;;;;;6229643;22;20648;-44
2024/01/21 01:31:26;;;;;;;11.85;4.55;;;;;;;;;;6277093;22;20068;-42
2024/01/21 01:33:54;;;;;;;11.57;4.55;;;;;;;;;;6268768;22;20016;-43
2024/01/21 01:36:22;;;;;;;15.97;4.60;;;;;;;;;;6276781;22;20519;-43
2024/01/21 01:38:50;;;;;;;13.52;5.43;;;;;;;;;;6274313;22;20015;-42
2024/01/21 01:41:18;;;;;;;13.10;4.35;;;;;;;;;;6238355;22;20480;-42
2024/01/21 01:43:47;;;;;;;20.35;4.80;;;;;;;;;;6273781;22;20015;-41
2024/01/21 01:46:15;;;;;;;13.73;5.10;;;;;;;;;;6272926;22;20015;-42
2024/01/21 01:48:43;;;;;;;15.63;5.47;;;;;;;;;;6258394;22;20012;-42
2024/01/21 01:51:11;;;;;;;15.98;4.75;;;;;;;;;;6278220;22;20019;-42
2024/01/21 01:53:39;;;;;;;19.38;5.82;;;;;;;;;;6266538;22;20042;-42
2024/01/21 01:56:07;;;;;;;19.45;5.72;;;;;;;;;;6274669;22;20029;-41
2024/01/21 01:58:38;;;;;;;16.70;5.85;;;;;;;;;;6274300;22;20432;-41
2024/01/21 02:01:09;;;;;;;15.77;5.33;;;;;;;;;;6264066;22;20050;-42
2024/01/21 02:03:37;;;;;;;21.48;5.88;;;;;;;;;;6277662;22;20397;-41
2024/01/21 02:06:05;;;;;;;15.25;5.05;;;;;;;;;;6264252;22;20023;-41
2024/01/21 02:08:33;;;;;;;14.23;5.40;;;;;;;;;;6274788;22;20019;-42
2024/01/21 02:11:01;;;;;;;16.35;5.57;;;;;;;;;;6258821;22;20019;-43
2024/01/21 02:13:29;;;;;;;18.23;5.40;;;;;;;;;;6281405;22;20015;-42
2024/01/21 02:15:58;;;;;;;16.27;5.90;;;;;;;;;;6225945;22;20015;-42
2024/01/21 02:18:28;;;;;;;19.48;5.55;;;;;;;;;;6277403;22;20111;-41
2024/01/21 02:20:56;;;;;;;16.52;5.38;;;;;;;;;;6269042;22;20016;-42
2024/01/21 02:23:25;;;;;;;18.45;5.65;;;;;;;;;;6266622;22;20380;-43
2024/01/21 02:25:53;;;;;;;17.63;5.80;;;;;;;;;;6274382;22;20345;-41
2024/01/21 02:28:20;;;;;;;15.45;5.40;;;;;;;;;;6229740;22;20019;-41
2024/01/21 02:30:48;;;;;;;13.20;5.15;;;;;;;;;;6268333;22;20045;-41
2024/01/21 02:33:16;;;;;;;12.93;3.65;;;;;;;;;;6270970;22;20015;-42
2024/01/21 02:35:45;;;;;;;14.55;4.40;;;;;;;;;;6240365;22;20011;-41
2024/01/21 02:38:19;;;;;;;10.43;3.40;;;;;;;;;;6259474;22;20015;-43
2024/01/21 02:40:48;;;;;;;9.30;2.67;;;;;;;;;;6271884;22;20446;-43
2024/01/21 02:43:16;;;;;;;12.13;3.97;;;;;;;;;;6274472;22;20450;-43
2024/01/21 02:45:44;;;;;;;14.10;4.28;;;;;;;;;;6278607;22;20026;-41
2024/01/21 02:48:12;;;;;;;16.50;4.30;;;;;;;;;;6279861;22;20446;-41
2024/01/21 02:50:40;;;;;;;9.83;3.33;;;;;;;;;;6266941;22;20019;-41
2024/01/21 02:53:07;;;;;;;14.07;3.63;;;;;;;;;;6285735;22;20380;-43
2024/01/21 02:55:36;;;;;;;11.13;4.03;;;;;;;;;;6267411;22;20019;-41
2024/01/21 02:58:05;;;;;;;7.85;2.70;;;;;;;;;;6276291;22;20015;-41
2024/01/21 03:00:32;;;;;;;8.30;2.65;;;;;;;;;;6271382;22;20018;-41
2024/01/21 03:03:00;;;;;;;11.47;3.47;;;;;;;;;;6256288;22;20440;-41
2024/01/21 03:05:28;;;;;;;10.75;2.90;;;;;;;;;;6272147;22;20015;-41
2024/01/21 03:07:56;;;;;;;10.00;3.38;;;;;;;;;;6252830;22;20480;-41
2024/01/21 03:10:25;;;;;;;12.77;3.60;;;;;;;;;;6273739;22;20015;-41
2024/01/21 03:12:53;;;;;;;9.38;3.10;;;;;;;;;;6276669;22;20136;-42
2024/01/21 03:15:22;;;;;;;7.47;2.37;;;;;;;;;;6276424;22;20015;-41
2024/01/21 03:17:49;;;;;;;8.25;2.30;;;;;;;;;;6270350;22;20011;-42
2024/01/21 03:20:19;;;;;;;8.93;2.63;;;;;;;;;;6284130;22;20519;-42
2024/01/21 03:22:48;;;;;;;13.18;2.80;;;;;;;;;;6284620;22;20528;-42
2024/01/21 03:25:17;;;;;;;10.35;2.75;;;;;;;;;;6274160;22;20084;-42
2024/01/21 03:27:45;;;;;;;7.47;1.80;;;;;;;;;;6246901;22;20418;-42
2024/01/21 03:30:16;;;;;;;9.82;2.50;;;;;;;;;;6266708;22;20485;-41
2024/01/21 03:32:46;;;;;;;9.18;2.38;;;;;;;;;;6282516;22;20043;-41
2024/01/21 03:35:14;;;;;;;9.57;2.35;;;;;;;;;;6268065;22;20018;-41
2024/01/21 03:37:42;;;;;;;10.68;2.30;;;;;;;;;;6278878;22;20030;-41
2024/01/21 03:40:10;;;;;;;8.60;1.83;;;;;;;;;;6272080;22;20019;-41
2024/01/21 03:42:38;;;;;;;7.65;1.58;;;;;;;;;;6252530;22;20015;-42
2024/01/21 03:45:06;;;;;;;8.25;1.88;;;;;;;;;;6252910;22;20466;-42
2024/01/21 03:47:34;;;;;;;8.48;1.90;;;;;;;;;;6285924;22;20011;-44
2024/01/21 03:50:03;;;;;;;6.47;1.15;;;;;;;;;;6264939;22;20455;-42
2024/01/21 03:52:31;;;;;;;9.97;2.13;;;;;;;;;;6276536;22;20015;-41
2024/01/21 03:54:59;;;;;;;6.00;1.10;;;;;;;;;;6284525;22;20022;-41
2024/01/21 03:57:27;;;;;;;5.97;1.85;;;;;;;;;;6271865;22;20023;-42
2024/01/21 03:59:54;;;;;;;5.95;1.42;;;;;;;;;;6258109;22;20710;-41
2024/01/21 04:02:23;;;;;;;4.97;1.20;;;;;;;;;;6278703;22;20094;-41
2024/01/21 04:04:53;;;;;;;6.30;1.43;;;;;;;;;;6263249;22;20018;-42
2024/01/21 04:07:23;;;;;;;6.75;1.60;;;;;;;;;;6275712;22;20023;-44
2024/01/21 04:09:51;;;;;;;6.85;1.25;;;;;;;;;;6282855;22;20019;-42
2024/01/21 04:12:19;;;;;;;8.10;1.25;;;;;;;;;;6274157;22;20018;-42
2024/01/21 04:14:47;;;;;;;11.00;1.60;;;;;;;;;;6280732;22;20521;-41
2024/01/21 04:17:15;;;;;;;5.37;1.20;;;;;;;;;;6244537;22;20039;-42
2024/01/21 04:19:43;;;;;;;6.32;1.55;;;;;;;;;;6249281;22;20102;-42
2024/01/21 04:22:11;;;;;;;6.18;1.45;;;;;;;;;;6283325;22;20015;-43
2024/01/21 04:24:41;;;;;;;9.07;1.83;;;;;;;;;;6275116;22;20015;-42
2024/01/21 04:27:08;;;;;;;8.65;1.25;;;;;;;;;;6247551;22;20019;-42
2024/01/21 04:29:36;;;;;;;7.00;1.07;;;;;;;;;;6261118;22;20381;-42
2024/01/21 04:32:04;;;;;;;6.75;1.10;;;;;;;;;;6262891;22;20019;-41
2024/01/21 04:34:32;;;;;;;6.32;1.58;;;;;;;;;;6278909;22;20015;-42
2024/01/21 04:37:01;;;;;;;4.90;1.02;;;;;;;;;;6273498;22;20038;-42
2024/01/21 04:39:28;;;;;;;5.43;1.20;;;;;;;;;;6274825;22;20015;-43
2024/01/21 04:41:58;;;;;;;9.10;1.20;;;;;;;;;;6274105;22;20019;-42
2024/01/21 04:44:25;;;;;;;11.20;0.93;;;;;;;;;;6274185;22;20015;-42
2024/01/21 04:46:53;;;;;;;7.20;1.00;;;;;;;;;;6272686;22;20023;-42
2024/01/21 04:49:21;;;;;;;5.72;0.90;;;;;;;;;;6278608;22;20016;-42
2024/01/21 04:51:49;;;;;;;8.15;0.95;;;;;;;;;;6275237;22;20023;-43
2024/01/21 04:54:17;;;;;;;6.30;0.97;;;;;;;;;;6278355;22;20092;-43
2024/01/21 04:56:45;;;;;;;6.85;1.08;;;;;;;;;;6280697;22;20015;-42
2024/01/21 04:59:14;;;;;;;10.43;1.42;;;;;;;;;;6271145;22;20042;-43
2024/01/21 05:01:42;;;;;;;7.95;1.27;;;;;;;;;;6279657;22;20461;-44
2024/01/21 05:04:10;;;;;;;5.72;1.88;;;;;;;;;;6273735;22;20011;-41
2024/01/21 05:06:37;;;;;;;10.23;2.13;;;;;;;;;;6278394;22;20057;-41
2024/01/21 05:09:06;;;;;;;7.20;2.03;;;;;;;;;;6271001;22;20330;-42
2024/01/21 05:11:34;;;;;;;6.38;1.40;;;;;;;;;;6279361;22;20018;-42
2024/01/21 05:14:01;;;;;;;4.82;1.23;;;;;;;;;;6271225;22;20019;-42
2024/01/21 05:16:30;;;;;;;6.40;1.40;;;;;;;;;;6268851;22;20339;-42
2024/01/21 05:18:58;;;;;;;5.57;0.97;;;;;;;;;;6270073;22;20546;-42
2024/01/21 05:21:26;;;;;;;11.05;1.27;;;;;;;;;;6278326;22;20091;-42
2024/01/21 05:23:54;;;;;;;6.68;1.00;;;;;;;;;;6272249;22;20015;-42
2024/01/21 05:26:44;;;;;;;6.78;0.95;;;;;;;;;;6260101;22;20357;-43
2024/01/21 05:29:12;;;;;;;13.57;1.67;;;;;;;;;;6248236;22;20043;-41
2024/01/21 05:31:41;;;;;;;9.73;1.30;;;;;;;;;;6277737;22;20025;-41
2024/01/21 05:34:09;;;;;;;10.32;1.73;;;;;;;;;;6278971;22;20025;-42
2024/01/21 05:36:37;;;;;;;10.27;1.35;;;;;;;;;;6271234;22;20178;-43
2024/01/21 05:39:04;;;;;;;12.48;1.90;;;;;;;;;;6269549;22;20464;-42
2024/01/21 05:41:33;;;;;;;15.98;2.03;;;;;;;;;;6272615;22;20021;-43
2024/01/21 05:44:01;;;;;;;14.07;2.03;;;;;;;;;;6270235;22;20023;-43
2024/01/21 05:46:29;;;;;;;8.68;1.38;;;;;;;;;;6269425;22;20430;-42
2024/01/21 05:48:58;;;;;;;13.80;1.55;;;;;;;;;;6274452;22;20407;-42
2024/01/21 05:51:26;;;;;;;14.55;1.90;;;;;;;;;;6256826;22;20022;-42
2024/01/21 05:53:54;;;;;;;9.50;1.83;;;;;;;;;;6263391;22;20412;-42
2024/01/21 05:56:24;;;;;;;17.33;1.63;;;;;;;;;;6267938;22;20015;-42
2024/01/21 05:58:51;;;;;;;11.80;1.42;;;;;;;;;;6255349;22;20306;-42
2024/01/21 06:01:19;;;;;;;10.98;1.42;;;;;;;;;;6260406;22;20354;-42
2024/01/21 06:03:47;;;;;;;11.35;1.42;;;;;;;;;;6251508;22;20593;-43
2024/01/21 06:06:16;;;;;;;12.90;1.52;;;;;;;;;;6257427;22;20038;-42
2024/01/21 06:08:45;;;;;;;10.07;1.90;;;;;;;;;;6264597;22;20046;-43
2024/01/21 06:11:13;;;;;;;10.88;1.75;;;;;;;;;;6268937;22;20023;-42
2024/01/21 06:13:41;;;;;;;15.43;1.77;;;;;;;;;;6261866;22;20400;-43
2024/01/21 06:16:08;;;;;;;14.90;1.42;;;;;;;;;;6274107;22;20472;-42
2024/01/21 06:18:36;;;;;;;17.58;1.70;;;;;;;;;;6262404;22;20046;-42
2024/01/21 06:21:04;;;;;;;12.73;1.73;;;;;;;;;;6263409;22;20401;-43
2024/01/21 06:23:34;;;;;;;11.90;1.63;;;;;;;;;;6257135;22;20045;-42
2024/01/21 06:26:02;;;;;;;18.52;1.83;;;;;;;;;;6258210;22;20016;-41
2024/01/21 06:28:30;;;;;;;11.05;1.45;;;;;;;;;;6225385;22;20497;-42
2024/01/21 06:30:57;;;;;;;17.08;2.10;;;;;;;;;;6257614;22;20399;-42
2024/01/21 06:33:25;;;;;;;16.63;1.70;;;;;;;;;;6236764;22;20054;-42
2024/01/21 06:35:53;;;;;;;18.48;2.10;;;;;;;;;;6236088;22;20060;-42
2024/01/21 06:38:21;;;;;;;17.58;1.73;;;;;;;;;;6275290;22;20050;-41
2024/01/21 06:40:51;;;;;;;16.35;1.45;;;;;;;;;;6264031;22;20015;-43
2024/01/21 06:43:19;;;;;;;14.57;2.60;;;;;;;;;;6259875;22;20037;-43
2024/01/21 06:45:47;;;;;;;13.20;1.57;;;;;;;;;;6267932;22;20019;-41
2024/01/21 06:48:15;;;;;;;10.88;0.85;;;;;;;;;;6244611;22;20441;-42
2024/01/21 06:50:48;;;;;;;21.60;2.80;;;;;;;;;;6276157;22;20092;-41
2024/01/21 06:53:16;;;;;;;10.52;1.63;;;;;;;;;;6275238;22;20076;-41
2024/01/21 06:55:44;;;;;;;14.18;1.55;;;;;;;;;;6270496;22;20438;-43
2024/01/21 06:58:13;;;;;;;10.00;1.80;;;;;;;;;;6269685;22;20098;-41
2024/01/21 07:00:41;;;;;;;19.77;1.50;;;;;;;;;;6260706;22;20016;-41
2024/01/21 07:03:09;;;;;;;14.02;1.48;;;;;;;;;;6269879;22;20446;-41
2024/01/21 07:05:37;;;;;;;12.93;1.48;;;;;;;;;;6255823;22;20346;-42
2024/01/21 07:08:05;;;;;;;10.23;1.33;;;;;;;;;;6265263;22;20015;-41
2024/01/21 07:10:33;;;;;;;9.87;1.23;;;;;;;;;;6222773;22;20019;-42
2024/01/21 07:13:01;;;;;;;9.25;0.93;;;;;;;;;;6257681;22;20396;-41
2024/01/21 07:15:31;;;;;;;12.65;1.50;;;;;;;;;;6278781;22;20035;-42
2024/01/21 07:17:59;;;;;;;9.82;1.10;;;;;;;;;;6260603;22;20520;-41
2024/01/21 07:20:27;;;;;;;10.57;1.25;;;;;;;;;;6263955;22;20334;-43
2024/01/21 07:22:57;;;;;;;16.70;1.10;;;;;;;;;;6238608;22;20026;-42
2024/01/21 07:25:25;;;;;;;13.68;1.23;;;;;;;;;;6272472;22;20750;-43
2024/01/21 07:27:56;;;;;;;14.63;1.30;;;;;;;;;;6239901;22;20015;-43
2024/01/21 07:30:24;;;;;;;11.02;1.10;;;;;;;;;;6270747;22;20034;-42
2024/01/21 07:32:55;;;;;;;15.75;1.30;;;;;;;;;;6260919;22;20015;-42
2024/01/21 07:35:28;;;;;;;6.53;0.83;;;;;;;;;;6262475;22;20468;-42
2024/01/21 07:37:56;;;;;;;15.07;1.58;;;;;;;;;;6269716;22;20019;-42
2024/01/21 07:40:28;;;;;;;15.43;1.40;;;;;;;;;;6274031;22;20043;-41
2024/01/21 07:42:56;;;;;;;11.93;1.48;;;;;;;;;;6264291;22;20090;-42
2024/01/21 07:45:24;;;;;;;15.15;1.80;;;;;;;;;;6258375;22;20305;-43
2024/01/21 07:47:57;;;;;;;13.60;1.10;;;;;;;;;;6273634;22;20511;-41
2024/01/21 07:50:25;;;;;;;15.07;2.00;;;;;;;;;;6262716;22;20822;-43
2024/01/21 07:52:52;;;;;;;9.98;0.98;;;;;;;;;;6278285;22;20022;-42
2024/01/21 07:55:20;;;;;;;12.45;1.52;;;;;;;;;;6264915;22;20102;-42
2024/01/21 07:57:49;;;;;;;11.75;2.00;;;;;;;;;;6274557;22;20415;-41
2024/01/21 08:00:17;;;;;;;12.43;1.20;;;;;;;;;;6257995;22;20084;-41
2024/01/21 08:02:45;;;;;;;13.82;1.42;;;;;;;;;;6271139;22;20019;-41
2024/01/21 08:05:33;;;;;;;14.93;1.75;;;;;;;;;;6259740;22;20068;-41
2024/01/21 08:08:02;;;;;;;17.88;2.30;;;;;;;;;;6276569;22;20102;-41
2024/01/21 08:10:32;;;;;;;15.32;1.27;;;;;;;;;;6253051;22;20015;-42
2024/01/21 08:13:00;;;;;;;17.90;1.93;;;;;;;;;;6264798;22;20023;-42
2024/01/21 08:15:28;;;;;;;14.55;1.42;;;;;;;;;;6262502;22;20460;-42
2024/01/21 08:17:56;;;;;;;15.32;2.33;;;;;;;;;;6254710;22;20019;-42
2024/01/21 08:20:25;;;;;;;10.98;0.90;;;;;;;;;;6257529;22;20583;-41
2024/01/21 08:23:00;;;;;;;22.95;2.03;;;;;;;;;;6255699;22;20023;-43
2024/01/21 08:25:29;;;;;;;10.97;1.00;;;;;;;;;;6264818;22;20019;-41
2024/01/21 08:27:59;;;;;;;21.13;2.25;;;;;;;;;;6215823;22;20019;-42
2024/01/21 08:30:27;;;;;;;12.00;1.42;;;;;;;;;;6268847;22;20066;-46
2024/01/21 08:32:55;;;;;;;11.60;1.40;;;;;;;;;;6263509;22;20016;-43
2024/01/21 08:35:23;;;;;;;17.33;2.35;;;;;;;;;;6267235;22;20025;-43
2024/01/21 08:37:51;;;;;;;14.03;1.50;;;;;;;;;;6260963;22;20019;-42
2024/01/21 08:40:20;;;;;;;16.85;1.60;;;;;;;;;;6242366;22;20011;-43
2024/01/21 08:42:48;;;;;;;15.30;2.38;;;;;;;;;;6264608;22;20026;-43
2024/01/21 08:45:16;;;;;;;18.77;1.88;;;;;;;;;;6260198;22;20039;-43
2024/01/21 08:47:44;;;;;;;13.15;1.42;;;;;;;;;;6269542;22;20019;-42
2024/01/21 08:50:13;;;;;;;15.33;1.53;;;;;;;;;;6259186;22;20047;-44
2024/01/21 08:52:40;;;;;;;18.83;2.45;;;;;;;;;;6236980;22;20548;-42
2024/01/21 08:55:08;;;;;;;14.13;1.42;;;;;;;;;;6261073;22;20335;-43
2024/01/21 08:57:38;;;;;;;15.80;1.27;;;;;;;;;;6240349;22;20230;-40
2024/01/21 09:00:06;;;;;;;11.85;1.45;;;;;;;;;;6260103;22;20469;-42
2024/01/21 09:02:36;;;;;;;18.77;1.47;;;;;;;;;;6266954;22;20041;-41
2024/01/21 09:05:05;;;;;;;12.13;1.38;;;;;;;;;;6260787;22;20019;-41
2024/01/21 09:07:33;;;;;;;13.35;1.92;;;;;;;;;;6266457;22;20502;-41
2024/01/21 09:10:04;;;;;;;18.17;1.67;;;;;;;;;;6270084;22;20364;-42
2024/01/21 09:12:32;;;;;;;13.77;1.30;;;;;;;;;;6277044;22;20392;-41
2024/01/21 09:15:02;;;;;;;16.43;2.17;;;;;;;;;;6264288;22;20477;-41
2024/01/21 09:17:30;;;;;;;17.35;1.42;;;;;;;;;;6259232;22;20405;-42
2024/01/21 09:20:16;;;;;;;14.70;1.98;;;;;;;;;;6265863;22;20062;-41
2024/01/21 09:22:46;;;;;;;18.75;1.83;;;;;;;;;;6259453;22;20026;-42
2024/01/21 09:25:13;;;;;;;20.25;2.00;;;;;;;;;;6264365;22;20016;-41
2024/01/21 09:27:45;;;;;;;16.40;1.57;;;;;;;;;;6197851;22;20015;-42
2024/01/21 09:30:15;;;;;;;20.15;2.15;;;;;;;;;;6242529;22;20077;-42
2024/01/21 09:32:44;;;;;;;17.85;1.58;;;;;;;;;;6256425;22;20015;-44
2024/01/21 09:35:12;;;;;;;16.70;2.55;;;;;;;;;;6263282;22;20039;-41
2024/01/21 09:37:43;;;;;;;24.13;2.65;;;;;;;;;;6249003;22;20069;-42
2024/01/21 09:40:11;;;;;;;17.23;1.93;;;;;;;;;;6264924;22;20023;-41
2024/01/21 09:42:39;;;;;;;17.13;2.60;;;;;;;;;;6261380;22;20015;-41
2024/01/21 09:45:11;;;;;;;30.75;3.22;;;;;;;;;;6254780;22;20675;-41
2024/01/21 09:47:42;;;;;;;20.90;2.15;;;;;;;;;;6237459;22;20019;-41
2024/01/21 09:50:10;;;;;;;23.55;2.50;;;;;;;;;;6250760;22;20103;-41
2024/01/21 09:52:38;;;;;;;9.77;1.20;;;;;;;;;;6265427;22;20015;-41
2024/01/21 09:55:06;;;;;;;20.85;1.75;;;;;;;;;;6273046;22;20015;-41
2024/01/21 09:57:36;;;;;;;15.65;1.40;;;;;;;;;;6265161;22;20061;-41
2024/01/21 10:00:06;;;;;;;19.20;1.80;;;;;;;;;;6274224;22;20026;-41
2024/01/21 10:02:36;;;;;;;19.48;1.83;;;;;;;;;;6240671;22;20296;-41
2024/01/21 10:05:06;;;;;;;26.27;2.50;;;;;;;;;;6258540;22;20019;-41
2024/01/21 10:07:34;;;;;;;16.60;2.03;;;;;;;;;;6264364;22;20022;-41
2024/01/21 10:10:02;;;;;;;25.23;2.13;;;;;;;;;;6264672;22;20019;-42
2024/01/21 10:12:30;;;;;;;25.00;2.53;;;;;;;;;;6271116;22;20025;-41
2024/01/21 10:14:58;;;;;;;22.65;2.72;;;;;;;;;;6266189;22;20475;-43
2024/01/21 10:17:26;;;;;;;20.60;2.60;;;;;;;;;;6270093;22;20068;-42
2024/01/21 10:19:54;;;;;;;24.65;2.85;;;;;;;;;;6261297;22;20016;-44
2024/01/21 10:22:25;;;;;;;18.50;2.28;;;;;;;;;;6261334;22;20098;-41
2024/01/21 10:24:53;;;;;;;21.30;2.33;;;;;;;;;;6259060;22;20053;-41
2024/01/21 10:27:21;;;;;;;24.33;3.22;;;;;;;;;;6232556;22;20019;-41
2024/01/21 10:29:49;;;;;;;28.00;3.70;;;;;;;;;;6254235;22;20019;-41
2024/01/21 10:32:18;;;;;;;23.27;3.15;;;;;;;;;;6255222;22;20398;-41
2024/01/21 10:34:52;;;;;;;20.02;2.50;;;;;;;;;;6271453;22;20015;-43
2024/01/21 10:37:21;;;;;;;22.75;3.67;;;;;;;;;;6273051;22;20350;-41
2024/01/21 10:39:50;;;;;;;27.45;2.55;;;;;;;;;;6237468;22;20410;-43
2024/01/21 10:42:18;;;;;;;21.70;2.90;;;;;;;;;;6274462;22;20061;-41
2024/01/21 10:44:51;;;;;;;22.30;2.80;;;;;;;;;;6271720;22;20744;-43
2024/01/21 10:47:21;;;;;;;32.80;3.65;;;;;;;;;;6274655;22;20030;-42
2024/01/21 10:49:50;;;;;;;21.98;3.10;;;;;;;;;;6262435;22;20110;-41
2024/01/21 10:52:18;;;;;;;26.95;4.15;;;;;;;;;;6267118;22;20346;-41
2024/01/21 10:54:47;;;;;;;28.60;3.33;;;;;;;;;;6276024;22;20076;-41
2024/01/21 10:57:17;;;;;;;28.92;2.70;;;;;;;;;;6265235;22;20462;-42
2024/01/21 10:59:45;;;;;;;24.42;3.22;;;;;;;;;;6278304;22;20027;-41
2024/01/21 11:02:15;;;;;;;23.70;3.78;;;;;;;;;;6260725;22;20042;-43
2024/01/21 11:04:43;;;;;;;32.78;3.90;;;;;;;;;;6271778;22;20030;-41
2024/01/21 11:07:13;;;;;;;31.00;2.73;;;;;;;;;;6268052;22;20019;-41
2024/01/21 11:09:41;;;;;;;20.92;2.65;;;;;;;;;;6273309;22;20019;-42
2024/01/21 11:12:10;;;;;;;20.38;2.70;;;;;;;;;;6257914;22;20451;-41
2024/01/21 11:14:45;;;;;;;31.05;3.45;;;;;;;;;;6273398;22;20341;-41
2024/01/21 11:17:17;;;;;;;22.52;2.65;;;;;;;;;;6277435;22;20023;-41
2024/01/21 11:19:50;;;;;;;27.90;3.83;;;;;;;;;;6260630;22;20438;-41
2024/01/21 11:22:20;;;;;;;33.50;4.85;;;;;;;;;;6272652;22;20015;-42
2024/01/21 11:24:48;;;;;;;30.85;2.83;;;;;;;;;;6261306;22;20019;-42
2024/01/21 11:27:18;;;;;;;28.17;2.88;;;;;;;;;;6251142;22;20090;-41
2024/01/21 11:29:50;;;;;;;29.33;2.83;;;;;;;;;;6240344;22;20110;-42
2024/01/21 11:32:22;;;;;;;26.67;4.27;;;;;;;;;;6274364;22;20019;-42
2024/01/21 11:34:50;;;;;;;23.58;3.00;;;;;;;;;;6262368;22;20038;-43
2024/01/21 11:37:18;;;;;;;13.43;2.50;;;;;;;;;;6278780;22;20015;-43
2024/01/21 11:39:47;;;;;;;20.88;3.35;;;;;;;;;;6264338;22;20126;-43
2024/01/21 11:42:14;;;;;;;23.98;3.42;;;;;;;;;;6275604;22;20105;-42
2024/01/21 11:44:43;;;;;;;28.10;3.43;;;;;;;;;;6266894;22;20068;-41
2024/01/21 11:47:18;;;;;;;23.08;2.65;;;;;;;;;;6272790;22;20079;-46
2024/01/21 11:49:46;;;;;;;26.08;2.88;;;;;;;;;;6264566;22;20019;-43
2024/01/21 11:52:14;;;;;;;26.42;3.55;;;;;;;;;;6277602;22;20065;-42
2024/01/21 11:54:43;;;;;;;29.65;3.85;;;;;;;;;;6269341;22;20019;-44
2024/01/21 11:57:15;;;;;;;30.17;3.07;;;;;;;;;;6263522;22;20018;-42
2024/01/21 11:59:43;;;;;;;18.25;3.50;;;;;;;;;;6259840;22;20090;-42
2024/01/21 12:02:11;;;;;;;26.55;2.83;;;;;;;;;;6261323;22;20019;-43
2024/01/21 12:04:40;;;;;;;24.25;3.05;;;;;;;;;;6258486;22;20015;-41
2024/01/21 12:07:09;;;;;;;28.45;4.00;;;;;;;;;;6273987;22;20069;-42
2024/01/21 12:09:37;;;;;;;22.77;2.83;;;;;;;;;;6268352;22;20819;-41
2024/01/21 12:12:07;;;;;;;23.55;3.00;;;;;;;;;;6258108;22;20327;-42
2024/01/21 12:14:35;;;;;;;25.23;3.55;;;;;;;;;;6256905;22;20023;-41
2024/01/21 12:17:03;;;;;;;36.33;3.75;;;;;;;;;;6230486;22;20015;-41
2024/01/21 12:19:32;;;;;;;26.50;3.20;;;;;;;;;;6251444;22;20015;-43
2024/01/21 12:22:01;;;;;;;25.37;4.03;;;;;;;;;;6258669;22;20023;-42
2024/01/21 12:24:32;;;;;;;20.50;2.40;;;;;;;;;;6266151;22;20029;-41
2024/01/21 12:27:00;;;;;;;13.20;2.08;;;;;;;;;;6230324;22;20377;-42
2024/01/21 12:29:35;;;;;;;29.17;4.18;;;;;;;;;;6245844;22;20080;-42
2024/01/21 12:32:04;;;;;;;17.25;2.75;;;;;;;;;;6245528;22;20023;-41
2024/01/21 12:34:32;;;;;;;21.63;3.23;;;;;;;;;;6270800;22;20015;-42
2024/01/21 12:37:02;;;;;;;27.20;4.15;;;;;;;;;;6262489;22;20367;-42
2024/01/21 12:39:30;;;;;;;30.83;3.75;;;;;;;;;;6261454;22;20015;-41
2024/01/21 12:41:57;;;;;;;26.45;3.35;;;;;;;;;;6259275;22;20055;-42
2024/01/21 12:44:25;;;;;;;24.92;3.72;;;;;;;;;;6265629;22;20118;-41
2024/01/21 12:46:53;;;;;;;37.70;4.73;;;;;;;;;;6251947;22;20022;-42
2024/01/21 12:49:21;;;;;;;23.85;3.92;;;;;;;;;;6268855;22;20015;-41
2024/01/21 12:51:49;;;;;;;18.42;2.25;;;;;;;;;;6255861;22;20473;-41
2024/01/21 12:54:18;;;;;;;22.48;2.35;;;;;;;;;;6262299;22;20019;-43
2024/01/21 12:56:46;;;;;;;20.52;2.67;;;;;;;;;;6264378;22;20015;-42
2024/01/21 12:59:14;;;;;;;17.83;2.77;;;;;;;;;;6258722;22;20023;-41
2024/01/21 13:01:42;;;;;;;22.48;2.72;;;;;;;;;;6264044;22;20019;-41
2024/01/21 13:04:11;;;;;;;18.20;2.25;;;;;;;;;;6265623;22;20086;-42
2024/01/21 13:06:39;;;;;;;29.35;4.18;;;;;;;;;;6264658;22;20038;-41
2024/01/21 13:09:26;;;;;;;29.13;3.92;;;;;;;;;;6269141;22;20022;-42
2024/01/21 13:11:53;;;;;;;25.63;3.47;;;;;;;;;;6266976;22;20023;-41
2024/01/21 13:14:21;;;;;;;32.53;4.80;;;;;;;;;;6270927;22;20046;-42
2024/01/21 13:16:55;;;;;;;30.90;3.10;;;;;;;;;;6270184;22;20058;-41
2024/01/21 13:19:22;;;;;;;25.90;3.55;;;;;;;;;;6271687;22;20395;-41
2024/01/21 13:21:50;;;;;;;27.35;3.53;;;;;;;;;;6262483;22;20482;-41
2024/01/21 13:24:19;;;;;;;29.20;4.33;;;;;;;;;;6269339;22;20104;-41
2024/01/21 13:26:52;;;;;;;27.02;3.30;;;;;;;;;;6256351;22;20019;-41
2024/01/21 13:32:06;;;;;;;26.40;3.33;;;;;;;;;;6280794;22;20111;-41
2024/01/21 13:34:34;;;;;;;27.48;3.55;;;;;;;;;;6264655;22;20022;-41
2024/01/21 13:37:02;;;;;;;40.33;5.20;;;;;;;;;;6275367;22;20015;-41
2024/01/21 13:39:29;;;;;;;21.45;2.25;;;;;;;;;;6261786;22;20283;-41
2024/01/21 13:41:58;;;;;;;22.73;3.10;;;;;;;;;;6257643;22;20023;-41
2024/01/21 13:44:30;;;;;;;29.45;4.75;;;;;;;;;;6258099;22;20019;-42
2024/01/21 13:47:00;;;;;;;20.45;2.80;;;;;;;;;;6271929;22;20015;-41
2024/01/21 13:49:28;;;;;;;25.83;3.53;;;;;;;;;;6264246;22;20091;-42
2024/01/21 13:51:56;;;;;;;20.33;2.60;;;;;;;;;;6250618;22;20111;-43
2024/01/21 13:54:24;;;;;;;24.48;4.43;;;;;;;;;;6269557;22;20015;-41
2024/01/21 13:56:54;;;;;;;31.33;5.65;;;;;;;;;;6274134;22;20094;-41
2024/01/21 13:59:23;;;;;;;24.00;4.03;;;;;;;;;;6262543;22;20527;-41
2024/01/21 14:01:52;;;;;;;25.13;3.00;;;;;;;;;;6234305;22;20015;-43
2024/01/21 14:04:35;;;;;;;33.28;4.07;;;;;;;;;;6267683;22;20011;-41
2024/01/21 14:07:03;;;;;;;27.27;3.13;;;;;;;;;;6243305;22;20603;-41
2024/01/21 14:09:31;;;;;;;28.58;4.53;;;;;;;;;;6269301;22;20019;-41
2024/01/21 14:11:59;;;;;;;30.13;4.03;;;;;;;;;;6228178;22;20015;-41
2024/01/21 14:14:28;;;;;;;27.00;3.60;;;;;;;;;;6267503;22;20080;-41
2024/01/21 14:16:56;;;;;;;34.97;4.28;;;;;;;;;;6255961;22;20019;-41
2024/01/21 14:19:23;;;;;;;30.73;2.85;;;;;;;;;;6269860;22;20045;-41
2024/01/21 14:21:51;;;;;;;20.10;3.60;;;;;;;;;;6234945;22;20015;-41
2024/01/21 14:24:22;;;;;;;24.05;2.85;;;;;;;;;;6267665;22;20015;-41
2024/01/21 14:26:50;;;;;;;28.07;3.97;;;;;;;;;;6197653;22;20019;-42
2024/01/21 14:29:40;;;;;;;22.65;3.55;;;;;;;;;;6236386;22;20019;-43
2024/01/21 14:32:08;;;;;;;19.42;2.65;;;;;;;;;;6237201;22;20077;-43
2024/01/21 14:34:35;;;;;;;29.23;4.57;;;;;;;;;;6261339;22;20019;-42
2024/01/21 14:37:03;;;;;;;22.73;3.35;;;;;;;;;;6263950;22;20442;-42
2024/01/21 14:39:31;;;;;;;25.93;3.10;;;;;;;;;;6262936;22;20464;-41
2024/01/21 14:41:59;;;;;;;12.98;1.98;;;;;;;;;;6248773;22;20050;-41
2024/01/21 14:44:27;;;;;;;19.17;3.05;;;;;;;;;;6265079;22;20019;-42